createdAt,value
2018-03-01T00:01:46.067Z,-7.10
2018-03-01T00:04:14.353Z,-7.10
2018-03-01T00:06:42.773Z,-7.10
2018-03-01T00:09:11.847Z,-7.10
2018-03-01T00:11:40.125Z,-7.10
2018-03-01T00:14:08.397Z,-7.10
2018-03-01T00:16:36.677Z,-7.10
2018-03-01T00:19:04.972Z,-7.10
2018-03-01T00:21:34.377Z,-7.10
2018-03-01T00:24:02.704Z,-7.10
2018-03-01T00:26:31.004Z,-7.10
2018-03-01T00:28:59.280Z,-7.10
2018-03-01T00:31:27.540Z,-7.10
2018-03-01T00:33:55.813Z,-7.10
2018-03-01T00:36:24.860Z,-7.20
2018-03-01T00:38:53.180Z,-7.30
2018-03-01T00:41:21.484Z,-7.20
2018-03-01T00:43:49.768Z,-7.30
2018-03-01T00:46:18.049Z,-7.30
2018-03-01T00:48:46.356Z,-7.40
2018-03-01T00:51:14.633Z,-7.40
2018-03-01T00:53:43.015Z,-7.50
2018-03-01T00:56:11.275Z,-7.50
2018-03-01T00:58:39.581Z,-7.50
2018-03-01T01:01:07.840Z,-7.60
2018-03-01T01:03:36.176Z,-7.60
2018-03-01T01:06:04.453Z,-7.70
2018-03-01T01:08:32.760Z,-7.80
2018-03-01T01:11:01.044Z,-7.80
2018-03-01T01:13:29.347Z,-7.80
2018-03-01T01:15:57.665Z,-7.90
2018-03-01T01:18:25.943Z,-7.90
2018-03-01T01:20:54.214Z,-8.00
2018-03-01T01:23:22.489Z,-8.00
2018-03-01T01:25:51.536Z,-8.00
2018-03-01T01:28:20.605Z,-8.10
2018-03-01T01:30:48.857Z,-8.10
2018-03-01T01:33:17.152Z,-8.10
2018-03-01T01:35:46.980Z,-8.10
2018-03-01T01:38:15.439Z,-8.20
2018-03-01T01:40:44.546Z,-8.20
2018-03-01T01:43:13.585Z,-8.20
2018-03-01T01:45:41.964Z,-8.30
2018-03-01T01:48:10.276Z,-8.20
2018-03-01T01:50:56.245Z,-8.30
2018-03-01T01:53:24.505Z,-8.30
2018-03-01T01:55:52.797Z,-8.30
2018-03-01T01:58:21.122Z,-8.30
2018-03-01T02:00:49.425Z,-8.30
2018-03-01T02:03:17.712Z,-8.30
2018-03-01T02:05:46.028Z,-8.30
2018-03-01T02:08:14.364Z,-8.30
2018-03-01T02:10:43.526Z,-8.30
2018-03-01T02:13:12.645Z,-8.20
2018-03-01T02:15:40.974Z,-8.30
2018-03-01T02:18:09.281Z,-8.20
2018-03-01T02:20:37.615Z,-8.20
2018-03-01T02:23:05.877Z,-8.20
2018-03-01T02:25:34.157Z,-8.10
2018-03-01T02:28:02.440Z,-8.10
2018-03-01T02:30:30.765Z,-8.10
2018-03-01T02:32:59.042Z,-8.10
2018-03-01T02:35:27.312Z,-8.10
2018-03-01T02:37:55.576Z,-8.10
2018-03-01T02:40:24.620Z,-8.20
2018-03-01T02:42:52.885Z,-8.20
2018-03-01T02:45:21.178Z,-8.20
2018-03-01T02:47:50.212Z,-8.30
2018-03-01T02:50:18.555Z,-8.30
2018-03-01T02:52:47.609Z,-8.30
2018-03-01T02:55:15.925Z,-8.40
2018-03-01T02:57:44.264Z,-8.30
2018-03-01T03:00:13.634Z,-8.40
2018-03-01T03:02:42.013Z,-8.40
2018-03-01T03:05:10.384Z,-8.40
2018-03-01T03:07:38.677Z,-8.40
2018-03-01T03:10:06.947Z,-8.40
2018-03-01T03:12:35.236Z,-8.40
2018-03-01T03:15:03.515Z,-8.50
2018-03-01T03:17:31.812Z,-8.50
2018-03-01T03:20:00.136Z,-8.50
2018-03-01T03:22:28.424Z,-8.50
2018-03-01T03:24:56.848Z,-8.40
2018-03-01T03:27:25.137Z,-8.40
2018-03-01T03:29:53.400Z,-8.40
2018-03-01T03:32:21.671Z,-8.40
2018-03-01T03:34:49.928Z,-8.40
2018-03-01T03:37:18.989Z,-8.40
2018-03-01T03:39:47.271Z,-8.50
2018-03-01T03:42:15.566Z,-8.50
2018-03-01T03:44:43.852Z,-8.40
2018-03-01T03:47:12.372Z,-8.40
2018-03-01T03:49:40.672Z,-8.30
2018-03-01T03:52:09.723Z,-8.30
2018-03-01T03:54:37.984Z,-8.30
2018-03-01T03:57:07.040Z,-8.30
2018-03-01T03:59:36.073Z,-8.40
2018-03-01T04:02:04.348Z,-8.30
2018-03-01T04:04:32.631Z,-8.30
2018-03-01T04:07:00.961Z,-8.30
2018-03-01T04:09:29.239Z,-8.30
2018-03-01T04:11:58.287Z,-8.30
2018-03-01T04:14:26.548Z,-8.40
2018-03-01T04:16:55.601Z,-8.30
2018-03-01T04:19:23.880Z,-8.40
2018-03-01T04:21:52.164Z,-8.40
2018-03-01T04:24:20.428Z,-8.40
2018-03-01T04:26:49.476Z,-8.30
2018-03-01T04:29:17.764Z,-8.30
2018-03-01T04:31:46.079Z,-8.20
2018-03-01T04:34:14.437Z,-8.20
2018-03-01T04:36:42.737Z,-8.20
2018-03-01T04:39:11.028Z,-8.10
2018-03-01T04:41:39.305Z,-8.10
2018-03-01T04:44:07.579Z,-8.10
2018-03-01T04:46:35.839Z,-8.00
2018-03-01T04:49:04.941Z,-8.00
2018-03-01T04:51:33.982Z,-7.90
2018-03-01T04:54:02.287Z,-8.00
2018-03-01T04:56:30.584Z,-7.90
2018-03-01T04:58:58.860Z,-7.90
2018-03-01T05:01:27.142Z,-7.90
2018-03-01T05:03:55.424Z,-8.00
2018-03-01T05:06:23.670Z,-8.00
2018-03-01T05:08:51.972Z,-8.00
2018-03-01T05:11:20.236Z,-7.90
2018-03-01T05:13:48.513Z,-7.90
2018-03-01T05:16:16.872Z,-7.80
2018-03-01T05:18:45.191Z,-7.80
2018-03-01T05:21:13.545Z,-7.80
2018-03-01T05:23:41.872Z,-7.80
2018-03-01T05:26:10.133Z,-7.80
2018-03-01T05:28:38.410Z,-7.80
2018-03-01T05:31:07.440Z,-7.70
2018-03-01T05:33:35.724Z,-7.80
2018-03-01T05:36:03.988Z,-7.70
2018-03-01T05:38:33.056Z,-7.70
2018-03-01T05:41:01.366Z,-7.70
2018-03-01T05:43:29.656Z,-7.70
2018-03-01T05:45:57.919Z,-7.70
2018-03-01T05:48:26.180Z,-7.70
2018-03-01T05:50:54.457Z,-7.70
2018-03-01T05:53:22.717Z,-7.70
2018-03-01T05:55:51.008Z,-7.70
2018-03-01T05:58:19.275Z,-7.70
2018-03-01T06:00:47.568Z,-7.70
2018-03-01T06:03:15.873Z,-7.70
2018-03-01T06:05:44.250Z,-7.70
2018-03-01T06:08:13.401Z,-7.70
2018-03-01T06:10:41.753Z,-7.80
2018-03-01T06:13:10.840Z,-7.70
2018-03-01T06:15:40.143Z,-7.80
2018-03-01T06:18:08.407Z,-7.70
2018-03-01T06:20:36.688Z,-7.70
2018-03-01T06:23:04.984Z,-7.60
2018-03-01T06:25:33.293Z,-7.70
2018-03-01T06:28:01.664Z,-7.60
2018-03-01T06:30:30.029Z,-7.60
2018-03-01T06:32:59.063Z,-7.50
2018-03-01T06:35:27.358Z,-7.60
2018-03-01T06:37:56.088Z,-7.50
2018-03-01T06:40:26.086Z,-7.50
2018-03-01T06:42:56.356Z,-7.50
2018-03-01T06:45:25.919Z,-7.40
2018-03-01T06:47:54.792Z,-7.40
2018-03-01T06:50:29.664Z,-7.40
2018-03-01T06:53:06.377Z,-7.30
2018-03-01T06:55:36.622Z,-7.20
2018-03-01T06:58:08.384Z,-7.20
2018-03-01T07:00:41.573Z,-7.00
2018-03-01T07:06:21.326Z,-6.90
2018-03-01T07:08:49.591Z,-7.00
2018-03-01T07:11:17.928Z,-6.90
2018-03-01T07:13:46.164Z,-6.90
2018-03-01T07:16:15.235Z,-6.80
2018-03-01T07:18:44.334Z,-6.80
2018-03-01T07:21:12.966Z,-6.90
2018-03-01T07:23:41.249Z,-6.90
2018-03-01T07:26:10.305Z,-6.90
2018-03-01T07:28:38.577Z,-6.90
2018-03-01T07:31:06.869Z,-6.80
2018-03-01T07:33:35.130Z,-6.80
2018-03-01T07:36:04.298Z,-6.60
2018-03-01T07:38:32.616Z,-6.60
2018-03-01T07:41:01.695Z,-6.50
2018-03-01T07:43:29.960Z,-6.50
2018-03-01T07:45:58.245Z,-6.50
2018-03-01T07:48:26.521Z,-6.60
2018-03-01T07:50:54.823Z,-6.50
2018-03-01T07:53:23.189Z,-6.50
2018-03-01T07:55:51.479Z,-6.40
2018-03-01T07:58:20.511Z,-6.20
2018-03-01T08:00:48.839Z,-6.20
2018-03-01T08:03:17.111Z,-5.90
2018-03-01T08:05:45.449Z,-5.70
2018-03-01T08:08:13.830Z,-5.40
2018-03-01T08:10:43.074Z,-5.50
2018-03-01T08:13:11.408Z,-5.50
2018-03-01T08:15:40.468Z,-5.10
2018-03-01T08:18:08.715Z,-5.10
2018-03-01T08:20:36.995Z,-4.70
2018-03-01T08:23:05.260Z,-4.60
2018-03-01T08:25:33.544Z,-4.50
2018-03-01T08:28:01.866Z,-4.40
2018-03-01T08:30:30.927Z,-4.50
2018-03-01T08:32:59.209Z,-4.70
2018-03-01T08:35:27.483Z,-4.70
2018-03-01T08:37:56.557Z,-4.70
2018-03-01T08:40:25.598Z,-4.60
2018-03-01T08:42:54.654Z,-4.70
2018-03-01T08:45:22.921Z,-4.80
2018-03-01T08:47:51.197Z,-4.60
2018-03-01T08:50:20.292Z,-4.40
2018-03-01T08:52:48.570Z,-4.40
2018-03-01T08:55:16.895Z,-4.40
2018-03-01T08:57:45.245Z,-4.70
2018-03-01T09:00:13.614Z,-4.70
2018-03-01T09:02:42.053Z,-4.60
2018-03-01T09:05:10.330Z,-4.60
2018-03-01T09:07:39.370Z,-4.30
2018-03-01T09:10:07.646Z,-4.30
2018-03-01T09:12:35.924Z,-4.30
2018-03-01T09:15:04.953Z,-4.00
2018-03-01T09:17:33.269Z,-4.00
2018-03-01T09:20:01.581Z,-3.90
2018-03-01T09:22:29.891Z,-4.00
2018-03-01T09:24:58.929Z,-3.90
2018-03-01T09:27:27.219Z,-4.00
2018-03-01T09:29:55.470Z,-3.80
2018-03-01T09:32:23.748Z,-3.60
2018-03-01T09:34:52.019Z,-3.50
2018-03-01T09:37:20.297Z,-3.40
2018-03-01T09:39:48.572Z,-3.20
2018-03-01T09:42:16.879Z,-3.00
2018-03-01T09:44:45.229Z,-2.90
2018-03-01T09:47:14.257Z,-2.80
2018-03-01T09:49:42.652Z,-2.90
2018-03-01T09:52:10.981Z,-2.90
2018-03-01T09:54:39.269Z,-2.90
2018-03-01T09:57:07.549Z,-3.00
2018-03-01T09:59:35.829Z,-3.00
2018-03-01T10:02:04.105Z,-2.80
2018-03-01T10:04:32.407Z,-2.80
2018-03-01T10:07:00.729Z,-2.40
2018-03-01T10:09:28.990Z,-2.50
2018-03-01T10:11:57.256Z,-2.40
2018-03-01T10:14:25.540Z,-2.50
2018-03-01T10:16:53.849Z,-2.70
2018-03-01T10:19:22.132Z,-2.70
2018-03-01T10:21:50.425Z,-2.80
2018-03-01T10:24:18.705Z,-2.70
2018-03-01T10:26:47.001Z,-2.60
2018-03-01T10:29:15.297Z,-2.60
2018-03-01T10:31:43.620Z,-2.50
2018-03-01T10:34:11.947Z,-2.50
2018-03-01T10:36:40.221Z,-2.70
2018-03-01T10:39:09.275Z,-2.70
2018-03-01T10:41:37.538Z,-2.70
2018-03-01T10:44:05.812Z,-2.50
2018-03-01T10:46:34.084Z,-2.30
2018-03-01T10:49:03.141Z,-1.90
2018-03-01T10:51:31.427Z,-1.90
2018-03-01T10:53:59.700Z,-1.60
2018-03-01T10:56:27.968Z,-1.60
2018-03-01T10:58:57.017Z,-1.80
2018-03-01T11:01:35.041Z,-1.90
2018-03-01T11:04:04.094Z,-1.80
2018-03-01T11:06:33.128Z,-1.60
2018-03-01T11:09:01.424Z,-1.70
2018-03-01T11:11:29.708Z,-1.70
2018-03-01T11:13:57.970Z,-1.80
2018-03-01T11:16:27.008Z,-1.70
2018-03-01T11:18:55.314Z,-1.70
2018-03-01T11:21:24.367Z,-1.70
2018-03-01T11:23:52.640Z,-1.70
2018-03-01T11:26:20.908Z,-1.60
2018-03-01T11:28:49.185Z,-1.30
2018-03-01T11:31:17.489Z,-1.20
2018-03-01T11:33:45.756Z,-1.20
2018-03-01T11:36:14.161Z,-1.20
2018-03-01T11:38:42.475Z,-1.40
2018-03-01T11:41:10.814Z,-1.40
2018-03-01T11:43:39.090Z,-1.40
2018-03-01T11:46:07.377Z,-1.60
2018-03-01T11:48:36.408Z,-1.50
2018-03-01T11:51:04.689Z,-1.60
2018-03-01T11:53:32.981Z,-1.50
2018-03-01T11:56:02.044Z,-1.30
2018-03-01T11:58:31.858Z,-1.10
2018-03-01T12:01:00.182Z,-1.10
2018-03-01T12:03:29.208Z,-0.70
2018-03-01T12:05:57.490Z,-0.80
2018-03-01T12:08:25.771Z,-0.60
2018-03-01T12:10:54.873Z,-1.00
2018-03-01T12:13:23.897Z,-1.10
2018-03-01T12:15:52.189Z,-1.10
2018-03-01T12:18:20.456Z,-1.20
2018-03-01T12:20:49.505Z,-1.10
2018-03-01T12:23:17.789Z,-1.20
2018-03-01T12:25:47.041Z,-1.10
2018-03-01T12:28:15.377Z,-1.00
2018-03-01T12:30:43.656Z,-0.80
2018-03-01T12:33:12.000Z,-0.50
2018-03-01T12:35:40.272Z,-0.40
2018-03-01T12:38:08.576Z,-0.20
2018-03-01T12:40:36.844Z,-0.20
2018-03-01T12:43:05.136Z,-0.10
2018-03-01T12:45:34.174Z,-0.20
2018-03-01T12:48:02.472Z,-0.30
2018-03-01T12:50:30.761Z,-0.10
2018-03-01T12:52:59.085Z,0.20
2018-03-01T12:55:27.288Z,0.30
2018-03-01T12:57:55.589Z,0.60
2018-03-01T13:00:23.865Z,0.70
2018-03-01T13:02:52.137Z,0.50
2018-03-01T13:05:22.315Z,0.50
2018-03-01T13:07:50.593Z,0.60
2018-03-01T13:10:18.847Z,0.70
2018-03-01T13:12:47.948Z,1.10
2018-03-01T13:15:17.033Z,1.00
2018-03-01T13:17:45.317Z,0.90
2018-03-01T13:20:13.590Z,0.90
2018-03-01T13:22:41.902Z,0.80
2018-03-01T13:25:10.168Z,0.60
2018-03-01T13:27:38.437Z,0.40
2018-03-01T13:30:07.095Z,0.40
2018-03-01T13:32:36.992Z,1.10
2018-03-01T13:35:09.608Z,1.00
2018-03-01T13:37:37.877Z,1.20
2018-03-01T13:40:06.135Z,1.00
2018-03-01T13:42:34.505Z,0.90
2018-03-01T13:45:02.787Z,1.10
2018-03-01T13:47:31.413Z,0.80
2018-03-01T13:49:59.731Z,0.70
2018-03-01T13:52:28.023Z,0.60
2018-03-01T13:54:56.282Z,0.80
2018-03-01T13:57:24.581Z,0.90
2018-03-01T13:59:52.858Z,0.90
2018-03-01T14:02:21.134Z,1.00
2018-03-01T14:04:49.405Z,1.10
2018-03-01T14:07:31.217Z,1.40
2018-03-01T14:09:59.500Z,1.40
2018-03-01T14:12:29.991Z,1.80
2018-03-01T14:14:58.289Z,1.90
2018-03-01T14:17:29.892Z,2.00
2018-03-01T14:20:00.410Z,1.70
2018-03-01T14:22:34.300Z,1.60
2018-03-01T14:25:03.520Z,1.70
2018-03-01T14:30:35.213Z,1.60
2018-03-01T14:33:03.503Z,1.60
2018-03-01T14:35:31.895Z,1.50
2018-03-01T14:38:00.904Z,1.20
2018-03-01T14:40:29.179Z,1.20
2018-03-01T14:42:57.450Z,1.20
2018-03-01T14:45:26.488Z,0.90
2018-03-01T14:47:54.764Z,0.80
2018-03-01T14:50:23.805Z,1.10
2018-03-01T14:52:53.572Z,1.10
2018-03-01T14:55:22.610Z,1.30
2018-03-01T14:57:50.887Z,1.30
2018-03-01T15:00:19.199Z,1.00
2018-03-01T15:02:47.520Z,0.80
2018-03-01T15:05:16.609Z,0.60
2018-03-01T15:07:45.678Z,0.60
2018-03-01T15:10:14.087Z,0.50
2018-03-01T15:12:42.551Z,0.40
2018-03-01T15:15:10.845Z,0.10
2018-03-01T15:17:39.116Z,0.00
2018-03-01T15:20:07.409Z,0.00
2018-03-01T15:22:36.465Z,-0.20
2018-03-01T15:25:05.521Z,-0.40
2018-03-01T15:27:34.544Z,-0.50
2018-03-01T15:30:02.825Z,-0.50
2018-03-01T15:32:31.898Z,-0.70
2018-03-01T15:35:00.192Z,-0.80
2018-03-01T15:37:28.457Z,-0.80
2018-03-01T15:39:56.733Z,-0.90
2018-03-01T15:42:24.994Z,-0.90
2018-03-01T15:44:54.068Z,-1.10
2018-03-01T15:47:22.333Z,-1.10
2018-03-01T15:49:50.620Z,-1.10
2018-03-01T15:52:18.892Z,-1.10
2018-03-01T15:54:47.179Z,-1.10
2018-03-01T15:57:15.470Z,-1.10
2018-03-01T15:59:43.775Z,-1.00
2018-03-01T16:02:12.127Z,-1.00
2018-03-01T16:04:40.393Z,-1.10
2018-03-01T16:07:08.684Z,-1.00
2018-03-01T16:09:36.956Z,-1.10
2018-03-01T16:12:05.237Z,-1.10
2018-03-01T16:14:33.509Z,-1.20
2018-03-01T16:17:01.906Z,-1.30
2018-03-01T16:19:30.181Z,-1.30
2018-03-01T16:21:58.577Z,-1.30
2018-03-01T16:24:26.862Z,-1.40
2018-03-01T16:26:55.914Z,-1.40
2018-03-01T16:29:24.178Z,-1.40
2018-03-01T16:31:53.220Z,-1.60
2018-03-01T16:34:21.489Z,-1.60
2018-03-01T16:36:49.764Z,-1.60
2018-03-01T16:39:18.036Z,-1.60
2018-03-01T16:41:46.311Z,-1.60
2018-03-01T16:44:14.698Z,-1.70
2018-03-01T16:46:43.059Z,-1.80
2018-03-01T16:49:11.394Z,-1.80
2018-03-01T16:51:39.703Z,-1.80
2018-03-01T16:54:07.965Z,-1.80
2018-03-01T16:56:36.260Z,-1.90
2018-03-01T16:59:04.537Z,-1.90
2018-03-01T17:01:32.837Z,-1.90
2018-03-01T17:04:01.138Z,-1.90
2018-03-01T17:06:30.040Z,-2.00
2018-03-01T17:08:58.329Z,-2.00
2018-03-01T17:11:26.621Z,-2.00
2018-03-01T17:13:54.884Z,-2.10
2018-03-01T17:16:23.177Z,-2.10
2018-03-01T17:18:52.228Z,-2.10
2018-03-01T17:21:20.485Z,-2.10
2018-03-01T17:23:48.752Z,-2.10
2018-03-01T17:26:17.850Z,-2.10
2018-03-01T17:28:46.930Z,-2.10
2018-03-01T17:31:15.478Z,-2.10
2018-03-01T17:33:44.714Z,-2.10
2018-03-01T17:36:13.094Z,-2.10
2018-03-01T17:38:41.381Z,-2.10
2018-03-01T17:41:09.709Z,-2.10
2018-03-01T17:43:37.997Z,-2.20
2018-03-01T17:46:07.056Z,-2.20
2018-03-01T17:48:35.334Z,-2.20
2018-03-01T17:51:03.589Z,-2.20
2018-03-01T17:53:31.855Z,-2.10
2018-03-01T17:56:00.125Z,-2.10
2018-03-01T17:58:29.180Z,-2.20
2018-03-01T18:00:57.448Z,-2.20
2018-03-01T18:03:25.728Z,-2.10
2018-03-01T18:05:54.005Z,-2.10
2018-03-01T18:08:22.293Z,-2.20
2018-03-01T18:10:50.693Z,-2.20
2018-03-01T18:13:18.980Z,-2.20
2018-03-01T18:15:55.986Z,-2.20
2018-03-01T18:18:25.285Z,-2.30
2018-03-01T18:20:53.616Z,-2.30
2018-03-01T18:23:21.955Z,-2.20
2018-03-01T18:25:50.264Z,-2.20
2018-03-01T18:28:18.644Z,-2.20
2018-03-01T18:30:47.232Z,-2.20
2018-03-01T18:33:15.819Z,-2.10
2018-03-01T18:35:44.128Z,-2.10
2018-03-01T18:38:12.490Z,-2.20
2018-03-01T18:40:40.876Z,-2.10
2018-03-01T18:43:09.178Z,-2.10
2018-03-01T18:45:37.495Z,-2.10
2018-03-01T18:48:05.756Z,-2.10
2018-03-01T18:50:34.082Z,-2.10
2018-03-01T18:53:02.369Z,-2.10
2018-03-01T18:55:30.659Z,-2.10
2018-03-01T18:57:58.943Z,-2.10
2018-03-01T19:00:27.219Z,-2.10
2018-03-01T19:02:56.305Z,-2.10
2018-03-01T19:05:26.131Z,-2.10
2018-03-01T19:07:55.160Z,-2.10
2018-03-01T19:10:24.241Z,-2.10
2018-03-01T19:12:53.303Z,-2.10
2018-03-01T19:15:21.652Z,-2.20
2018-03-01T19:17:49.999Z,-2.10
2018-03-01T19:20:19.205Z,-2.00
2018-03-01T19:22:49.016Z,-2.10
2018-03-01T19:25:18.126Z,-2.10
2018-03-01T19:27:47.340Z,-2.10
2018-03-01T19:30:15.979Z,-2.10
2018-03-01T19:32:44.328Z,-2.10
2018-03-01T19:35:12.727Z,-2.10
2018-03-01T19:37:41.066Z,-2.20
2018-03-01T19:40:09.423Z,-2.20
2018-03-01T19:42:37.716Z,-2.20
2018-03-01T19:45:06.032Z,-2.20
2018-03-01T19:47:34.376Z,-2.20
2018-03-01T19:50:02.773Z,-2.20
2018-03-01T19:52:31.053Z,-2.20
2018-03-01T19:54:59.340Z,-2.20
2018-03-01T19:57:27.640Z,-2.20
2018-03-01T19:59:57.066Z,-2.20
2018-03-01T20:02:25.366Z,-2.30
2018-03-01T20:04:53.714Z,-2.30
2018-03-01T20:07:21.970Z,-2.30
2018-03-01T20:09:51.139Z,-2.40
2018-03-01T20:12:19.488Z,-2.40
2018-03-01T20:14:47.800Z,-2.40
2018-03-01T20:17:16.176Z,-2.50
2018-03-01T20:19:44.611Z,-2.60
2018-03-01T20:22:12.962Z,-2.60
2018-03-01T20:24:41.401Z,-2.60
2018-03-01T20:27:10.469Z,-2.80
2018-03-01T20:29:38.844Z,-2.80
2018-03-01T20:32:07.184Z,-2.80
2018-03-01T20:34:35.528Z,-2.80
2018-03-01T20:37:04.582Z,-2.90
2018-03-01T20:39:32.921Z,-2.90
2018-03-01T20:42:01.284Z,-2.90
2018-03-01T20:44:29.514Z,-3.00
2018-03-01T20:46:57.817Z,-3.00
2018-03-01T20:51:55.789Z,-3.20
2018-03-01T20:54:24.065Z,-3.10
2018-03-01T20:56:53.152Z,-3.10
2018-03-01T20:59:21.470Z,-3.20
2018-03-01T21:01:49.782Z,-3.10
2018-03-01T21:04:18.077Z,-3.20
2018-03-01T21:06:46.458Z,-3.20
2018-03-01T21:09:14.778Z,-3.20
2018-03-01T21:11:43.133Z,-3.10
2018-03-01T21:14:11.493Z,-3.10
2018-03-01T21:16:40.593Z,-3.10
2018-03-01T21:19:08.891Z,-3.20
2018-03-01T21:21:37.167Z,-3.10
2018-03-01T21:24:05.656Z,-3.20
2018-03-01T21:26:33.974Z,-3.20
2018-03-01T21:29:02.275Z,-3.30
2018-03-01T21:31:31.345Z,-3.30
2018-03-01T21:33:59.664Z,-3.40
2018-03-01T21:36:28.694Z,-3.30
2018-03-01T21:38:57.000Z,-3.40
2018-03-01T21:41:25.293Z,-3.40
2018-03-01T21:43:53.617Z,-3.40
2018-03-01T21:46:22.141Z,-3.40
2018-03-01T21:48:51.196Z,-3.40
2018-03-01T21:51:19.501Z,-3.50
2018-03-01T21:53:47.852Z,-3.40
2018-03-01T21:56:16.157Z,-3.40
2018-03-01T21:58:44.603Z,-3.50
2018-03-01T22:01:14.153Z,-3.50
2018-03-01T22:03:42.563Z,-3.60
2018-03-01T22:06:10.874Z,-3.50
2018-03-01T22:08:39.164Z,-3.50
2018-03-01T22:11:07.436Z,-3.50
2018-03-01T22:13:35.769Z,-3.50
2018-03-01T22:16:04.842Z,-3.40
2018-03-01T22:18:33.154Z,-3.50
2018-03-01T22:23:33.078Z,-3.60
2018-03-01T22:26:01.349Z,-3.60
2018-03-01T22:28:29.634Z,-3.50
2018-03-01T22:30:57.908Z,-3.50
2018-03-01T22:33:26.977Z,-3.50
2018-03-01T22:35:55.300Z,-3.60
2018-03-01T22:38:24.779Z,-3.50
2018-03-01T22:40:54.220Z,-3.50
2018-03-01T22:43:22.517Z,-3.50
2018-03-01T22:45:51.585Z,-3.50
2018-03-01T22:48:19.872Z,-3.50
2018-03-01T22:50:48.148Z,-3.50
2018-03-01T22:53:16.474Z,-3.40
2018-03-01T22:55:44.876Z,-3.40
2018-03-01T22:58:13.976Z,-3.40
2018-03-01T23:00:53.558Z,-3.30
2018-03-01T23:03:22.612Z,-3.30
2018-03-01T23:05:50.971Z,-3.40
2018-03-01T23:08:19.248Z,-3.40
2018-03-01T23:10:48.350Z,-3.40
2018-03-01T23:13:16.632Z,-3.50
2018-03-01T23:15:45.711Z,-3.50
2018-03-01T23:20:43.744Z,-3.50
2018-03-01T23:23:12.144Z,-3.50
2018-03-01T23:25:41.221Z,-3.40
2018-03-01T23:28:09.481Z,-3.50
2018-03-01T23:30:37.841Z,-3.50
2018-03-01T23:33:06.875Z,-3.60
2018-03-01T23:35:35.159Z,-3.70
2018-03-01T23:38:03.436Z,-3.70
2018-03-01T23:40:31.717Z,-3.70
2018-03-01T23:43:00.764Z,-3.80
2018-03-01T23:45:29.033Z,-3.80
2018-03-01T23:47:57.310Z,-3.90
2018-03-01T23:50:25.592Z,-3.90
2018-03-01T23:52:54.620Z,-4.00
2018-03-01T23:55:22.912Z,-4.10
2018-03-01T23:57:51.180Z,-4.10
